Time;durP1;ratioP1;P1;durP2;ratioP2;P2;SDS_P1;SDS_P2;PMS_P1;PMS_P2;Temp;Humidity;BMP_temperature;BMP_pressure;BME280_temperature;BME280_humidity;BME280_pressure;Samples;Min_cycle;Max_cycle;Signal;HPM_P1;HPM_P2
2021/07/13 00:00:38;;;;;;;7.28;1.95;;;21.00;99.90;;;;;;1863319;76;21097;-81
2021/07/13 00:03:04;;;;;;;4.33;1.80;;;21.00;99.90;;;;;;1863299;77;21167;-79
2021/07/13 00:05:30;;;;;;;1.00;1.00;;;20.90;99.90;;;;;;1861459;77;21160;-80
2021/07/13 00:07:57;;;;;;;1.32;1.22;;;21.00;99.90;;;;;;1863322;76;21090;-80
2021/07/13 00:10:23;;;;;;;3.27;1.22;;;20.80;99.90;;;;;;1863285;77;21097;-80
2021/07/13 00:12:49;;;;;;;4.42;1.00;;;20.80;99.90;;;;;;1863410;77;21087;-80
2021/07/13 00:15:15;;;;;;;1.90;1.10;;;20.70;99.90;;;;;;1863189;77;21097;-80
2021/07/13 00:17:41;;;;;;;3.70;1.37;;;20.70;99.90;;;;;;1863368;77;21085;-80
2021/07/13 00:20:07;;;;;;;0.95;0.88;;;20.60;99.90;;;;;;1879349;76;21018;-80
2021/07/13 00:22:33;;;;;;;1.00;0.90;;;20.50;99.90;;;;;;1863241;77;21164;-80
2021/07/13 00:24:59;;;;;;;1.37;1.07;;;20.50;99.90;;;;;;1863422;76;21085;-80
2021/07/13 00:27:26;;;;;;;1.52;0.98;;;20.40;99.90;;;;;;1862053;76;21175;-81
2021/07/13 00:29:52;;;;;;;2.15;1.22;;;20.50;99.90;;;;;;1861930;77;21293;-80
2021/07/13 00:32:18;;;;;;;1.10;1.00;;;20.40;99.90;;;;;;1862933;77;21081;-80
2021/07/13 00:34:44;;;;;;;1.15;1.05;;;20.30;99.90;;;;;;1861372;76;21167;-80
2021/07/13 00:37:10;;;;;;;1.95;0.90;;;20.30;99.90;;;;;;1863004;77;21156;-80
2021/07/13 00:39:36;;;;;;;1.17;0.93;;;20.30;99.90;;;;;;1863102;76;21498;-80
2021/07/13 00:42:02;;;;;;;1.30;0.90;;;20.20;99.90;;;;;;1862912;77;21574;-80
2021/07/13 00:44:29;;;;;;;0.80;0.70;;;20.20;99.90;;;;;;1862973;77;21499;-80
2021/07/13 00:46:55;;;;;;;1.25;0.82;;;20.30;99.90;;;;;;1862979;77;21517;-80
2021/07/13 00:49:21;;;;;;;3.33;0.90;;;20.30;99.90;;;;;;1863038;76;21498;-80
2021/07/13 00:51:47;;;;;;;2.12;0.80;;;20.30;99.90;;;;;;1862922;77;21120;-80
2021/07/13 00:54:13;;;;;;;1.12;0.45;;;20.20;99.90;;;;;;1862990;77;21101;-80
2021/07/13 00:56:39;;;;;;;1.22;0.70;;;20.20;99.90;;;;;;1862986;77;21166;-79
2021/07/13 00:59:05;;;;;;;1.55;0.93;;;20.20;99.90;;;;;;1862891;77;21098;-79
2021/07/13 01:01:31;;;;;;;1.47;0.55;;;20.10;99.90;;;;;;1863038;77;21140;-80
2021/07/13 01:03:58;;;;;;;3.00;0.90;;;20.00;99.90;;;;;;1862902;77;21030;-79
2021/07/13 01:06:24;;;;;;;1.35;0.60;;;20.00;99.90;;;;;;1863057;77;21097;-79
2021/07/13 01:08:50;;;;;;;1.65;0.82;;;19.90;99.90;;;;;;1863208;76;21212;-80
2021/07/13 01:11:17;;;;;;;1.15;0.50;;;19.90;99.90;;;;;;1863092;77;21100;-80
2021/07/13 01:13:43;;;;;;;3.08;0.60;;;19.90;99.90;;;;;;1863101;77;21155;-79
2021/07/13 01:16:09;;;;;;;0.80;0.60;;;19.90;99.90;;;;;;1862929;77;21066;-79
2021/07/13 01:18:35;;;;;;;3.30;0.80;;;19.80;99.90;;;;;;1863032;77;21175;-79
2021/07/13 01:21:01;;;;;;;2.08;0.85;;;19.80;99.90;;;;;;1862907;77;21159;-80
2021/07/13 01:23:27;;;;;;;4.45;0.98;;;19.80;99.90;;;;;;1863017;77;21163;-79
2021/07/13 01:25:53;;;;;;;1.90;0.70;;;19.80;99.90;;;;;;1862934;77;21066;-79
2021/07/13 01:28:20;;;;;;;1.32;0.75;;;19.90;99.90;;;;;;1863136;77;21093;-79
2021/07/13 01:30:46;;;;;;;1.30;0.95;;;19.90;99.90;;;;;;1863075;76;21089;-79
2021/07/13 01:33:12;;;;;;;1.30;0.70;;;19.90;99.90;;;;;;1863161;77;21089;-79
2021/07/13 01:35:38;;;;;;;2.87;0.82;;;20.00;99.90;;;;;;1863143;77;21065;-80
2021/07/13 01:38:04;;;;;;;4.25;1.17;;;19.90;99.90;;;;;;1863265;77;21155;-80
2021/07/13 01:40:30;;;;;;;1.05;0.90;;;19.80;99.90;;;;;;1863238;77;21171;-79
2021/07/13 01:42:56;;;;;;;1.87;1.00;;;19.70;99.90;;;;;;1863292;77;21119;-78
2021/07/13 01:45:22;;;;;;;2.00;0.88;;;19.70;99.90;;;;;;1863420;77;21622;-77
2021/07/13 01:47:49;;;;;;;3.05;1.20;;;19.80;99.90;;;;;;1866565;76;21121;-79
2021/07/13 01:50:15;;;;;;;1.40;0.90;;;19.70;99.90;;;;;;1866137;76;21101;-79
2021/07/13 01:52:41;;;;;;;1.72;1.10;;;19.70;99.90;;;;;;1863334;77;21497;-78
2021/07/13 01:55:08;;;;;;;1.90;1.25;;;19.70;99.90;;;;;;1863269;77;21481;-79
2021/07/13 01:57:34;;;;;;;1.50;1.17;;;19.70;99.90;;;;;;1863237;77;21089;-78
2021/07/13 02:00:00;;;;;;;5.12;1.30;;;19.70;99.90;;;;;;1863084;76;21085;-76
2021/07/13 02:02:27;;;;;;;2.35;1.45;;;19.70;99.90;;;;;;1863172;77;21163;-77
2021/07/13 02:04:53;;;;;;;2.47;1.30;;;19.60;99.90;;;;;;1863062;77;21296;-77
2021/07/13 02:07:19;;;;;;;3.20;1.50;;;19.60;99.90;;;;;;1863105;77;21502;-78
2021/07/13 02:09:45;;;;;;;1.65;1.30;;;19.60;99.90;;;;;;1863109;77;21537;-76
2021/07/13 02:12:11;;;;;;;1.65;1.17;;;19.50;99.90;;;;;;1863210;77;21233;-77
2021/07/13 02:14:37;;;;;;;3.02;1.05;;;19.40;99.90;;;;;;1859957;76;21093;-76
2021/07/13 02:17:03;;;;;;;1.30;1.17;;;19.40;99.90;;;;;;1863101;77;21167;-76
2021/07/13 02:19:29;;;;;;;1.50;0.90;;;19.40;99.90;;;;;;1863167;77;21058;-76
2021/07/13 02:21:56;;;;;;;1.02;0.90;;;19.20;99.90;;;;;;1863135;77;21194;-76
2021/07/13 02:24:22;;;;;;;2.52;1.37;;;19.20;99.90;;;;;;1863221;77;21085;-76
2021/07/13 02:26:48;;;;;;;2.83;1.35;;;19.20;99.90;;;;;;1861166;76;21097;-77
2021/07/13 02:29:14;;;;;;;2.27;0.95;;;19.10;99.90;;;;;;1863144;77;21054;-74
2021/07/13 02:31:41;;;;;;;1.10;0.80;;;18.90;99.90;;;;;;1863285;77;21085;-71
2021/07/13 02:34:07;;;;;;;2.77;1.05;;;18.60;99.90;;;;;;1863838;77;21116;-74
2021/07/13 02:36:33;;;;;;;2.10;0.90;;;18.70;99.90;;;;;;1863235;77;21128;-73
2021/07/13 02:38:59;;;;;;;1.92;0.80;;;18.70;99.90;;;;;;1863033;77;21085;-74
2021/07/13 02:41:25;;;;;;;5.20;1.37;;;18.60;99.90;;;;;;1858827;76;21166;-73
2021/07/13 02:43:51;;;;;;;3.25;1.30;;;18.70;99.90;;;;;;1861100;76;21172;-74
2021/07/13 02:46:17;;;;;;;2.42;1.17;;;18.70;99.90;;;;;;1861103;77;21233;-74
2021/07/13 02:48:43;;;;;;;2.92;1.20;;;18.70;99.90;;;;;;1862783;76;21097;-74
2021/07/13 02:51:09;;;;;;;3.12;0.93;;;18.70;99.90;;;;;;1862923;76;21143;-74
2021/07/13 02:53:36;;;;;;;1.85;1.07;;;18.70;99.90;;;;;;1862855;77;21088;-73
2021/07/13 02:56:02;;;;;;;1.55;1.07;;;18.70;99.90;;;;;;1862998;77;21093;-74
2021/07/13 02:58:28;;;;;;;3.70;0.80;;;18.70;99.90;;;;;;1862870;77;21108;-74
2021/07/13 03:00:55;;;;;;;2.17;1.10;;;18.60;99.90;;;;;;1863013;77;21106;-74
2021/07/13 03:03:21;;;;;;;3.17;1.07;;;18.70;99.90;;;;;;1862980;77;21461;-75
2021/07/13 03:05:47;;;;;;;1.40;1.10;;;18.60;99.90;;;;;;1862887;77;21567;-76
2021/07/13 03:08:13;;;;;;;1.47;0.90;;;18.60;99.90;;;;;;1863016;77;21144;-76
2021/07/13 03:10:39;;;;;;;5.10;1.05;;;18.60;99.90;;;;;;1863072;77;21151;-77
2021/07/13 03:13:05;;;;;;;9.78;1.07;;;18.60;99.90;;;;;;1862992;77;21179;-76
2021/07/13 03:15:32;;;;;;;4.87;1.15;;;18.50;99.90;;;;;;1862888;77;21062;-76
2021/07/13 03:17:58;;;;;;;2.87;0.90;;;18.50;99.90;;;;;;1862938;77;21179;-77
2021/07/13 03:20:24;;;;;;;2.50;1.02;;;18.50;99.90;;;;;;1862959;77;21182;-76
2021/07/13 03:22:50;;;;;;;3.50;1.10;;;18.50;99.90;;;;;;1863003;76;21105;-76
2021/07/13 03:25:16;;;;;;;1.95;0.98;;;18.50;99.90;;;;;;1862986;76;21124;-76
2021/07/13 03:27:42;;;;;;;8.35;1.00;;;18.60;99.90;;;;;;1862926;77;21592;-76
2021/07/13 03:30:08;;;;;;;1.45;1.00;;;18.50;99.90;;;;;;1862925;77;21555;-77
2021/07/13 03:32:34;;;;;;;1.20;1.00;;;18.50;99.90;;;;;;1863070;77;21517;-77
2021/07/13 03:35:01;;;;;;;1.00;0.90;;;18.60;99.90;;;;;;1863042;77;21471;-76
2021/07/13 03:37:27;;;;;;;1.90;0.85;;;18.60;99.90;;;;;;1862907;77;21525;-75
2021/07/13 03:39:54;;;;;;;1.72;0.90;;;18.50;99.90;;;;;;1862940;77;21517;-76
2021/07/13 03:42:20;;;;;;;4.40;1.22;;;18.50;99.90;;;;;;1862895;77;21174;-76
2021/07/13 03:44:46;;;;;;;1.07;0.95;;;18.50;99.90;;;;;;1862975;77;21163;-77
2021/07/13 03:47:12;;;;;;;1.87;0.90;;;18.50;99.90;;;;;;1862976;77;21446;-77
2021/07/13 03:49:39;;;;;;;1.50;0.95;;;18.50;99.90;;;;;;1863107;77;21509;-76
2021/07/13 03:52:05;;;;;;;3.83;1.15;;;18.50;99.90;;;;;;1863110;77;21523;-76
2021/07/13 03:54:32;;;;;;;1.67;1.00;;;18.40;99.90;;;;;;1862993;77;21151;-76
2021/07/13 03:56:58;;;;;;;2.25;1.10;;;18.40;99.90;;;;;;1862949;77;21097;-77
2021/07/13 03:59:24;;;;;;;2.92;0.98;;;18.40;99.90;;;;;;1862964;77;21093;-76
2021/07/13 04:01:51;;;;;;;1.60;1.00;;;18.40;99.90;;;;;;1862929;76;21157;-76
2021/07/13 04:04:17;;;;;;;5.08;0.88;;;18.30;99.90;;;;;;1863066;77;21159;-77
2021/07/13 04:06:43;;;;;;;2.45;1.00;;;18.30;99.90;;;;;;1862864;77;21089;-77
2021/07/13 04:09:09;;;;;;;3.42;1.10;;;18.20;99.90;;;;;;1863139;77;21097;-77
2021/07/13 04:11:35;;;;;;;0.80;0.78;;;18.30;99.90;;;;;;1862918;77;21038;-77
2021/07/13 04:14:01;;;;;;;4.85;1.25;;;18.30;99.90;;;;;;1863102;77;21171;-75
2021/07/13 04:16:27;;;;;;;1.92;1.02;;;18.30;99.90;;;;;;1862857;77;21105;-76
2021/07/13 04:18:53;;;;;;;1.00;0.80;;;18.20;99.90;;;;;;1863019;77;21101;-76
2021/07/13 04:21:19;;;;;;;2.35;0.95;;;18.20;99.90;;;;;;1862885;77;21395;-76
2021/07/13 04:23:46;;;;;;;2.02;0.95;;;18.20;99.90;;;;;;1863007;77;21497;-76
2021/07/13 04:26:12;;;;;;;1.90;1.00;;;18.20;99.90;;;;;;1862809;77;21487;-77
2021/07/13 04:28:38;;;;;;;0.98;0.88;;;18.20;99.90;;;;;;1862926;77;21497;-76
2021/07/13 04:31:04;;;;;;;2.20;1.20;;;18.20;99.90;;;;;;1862743;77;21509;-76
2021/07/13 04:33:30;;;;;;;0.90;0.78;;;18.30;99.90;;;;;;1863018;77;21537;-76
2021/07/13 04:35:57;;;;;;;1.57;0.70;;;18.30;99.90;;;;;;1862766;77;21101;-76
2021/07/13 04:38:23;;;;;;;5.28;0.93;;;18.30;99.90;;;;;;1862891;77;21155;-76
2021/07/13 04:40:49;;;;;;;1.47;1.12;;;18.30;99.90;;;;;;1862812;77;21073;-76
2021/07/13 04:43:16;;;;;;;2.83;1.20;;;18.40;99.90;;;;;;1863005;77;21058;-76
2021/07/13 04:45:42;;;;;;;1.25;0.70;;;18.30;99.90;;;;;;1862859;77;21252;-76
2021/07/13 04:48:08;;;;;;;3.12;0.98;;;18.40;99.90;;;;;;1862870;77;21167;-76
2021/07/13 04:50:34;;;;;;;1.32;0.78;;;18.60;99.90;;;;;;1862885;77;21148;-76
2021/07/13 04:53:00;;;;;;;1.50;0.75;;;18.60;99.90;;;;;;1862993;77;21058;-75
2021/07/13 04:55:26;;;;;;;1.35;0.80;;;18.70;99.90;;;;;;1853421;77;21121;-76
2021/07/13 04:57:52;;;;;;;0.78;0.78;;;18.70;99.90;;;;;;1858557;76;21596;-76
2021/07/13 05:00:18;;;;;;;3.42;0.98;;;18.70;99.90;;;;;;1862814;77;21155;-76
2021/07/13 05:02:45;;;;;;;1.92;0.90;;;18.70;99.90;;;;;;1861497;77;21232;-76
2021/07/13 05:05:11;;;;;;;0.60;0.60;;;18.70;99.90;;;;;;1862530;76;21220;-77
2021/07/13 05:07:37;;;;;;;2.12;0.75;;;18.50;99.90;;;;;;1860878;76;21580;-76
2021/07/13 05:10:03;;;;;;;1.17;0.72;;;18.60;99.90;;;;;;1860405;76;21583;-76
2021/07/13 05:12:29;;;;;;;1.52;0.85;;;18.70;99.90;;;;;;1861844;77;21548;-76
2021/07/13 05:14:55;;;;;;;3.05;1.00;;;18.80;99.90;;;;;;1856696;76;21508;-76
2021/07/13 05:17:21;;;;;;;1.15;0.70;;;18.90;99.90;;;;;;1861550;77;21058;-76
2021/07/13 05:19:49;;;;;;;0.53;0.53;;;19.10;99.90;;;;;;1861282;76;21152;-76
2021/07/13 05:22:16;;;;;;;0.47;0.47;;;19.30;99.90;;;;;;1863218;77;21096;-76
2021/07/13 05:24:42;;;;;;;1.00;0.68;;;19.50;99.90;;;;;;1863556;77;21171;-77
2021/07/13 05:27:11;;;;;;;1.77;1.00;;;19.70;99.90;;;;;;1863562;77;21077;-76
2021/07/13 05:29:36;;;;;;;1.07;0.80;;;20.00;99.90;;;;;;1863588;76;21510;-76
2021/07/13 05:32:02;;;;;;;0.82;0.70;;;20.20;99.90;;;;;;1863832;77;21123;-77
2021/07/13 05:34:28;;;;;;;1.80;0.80;;;20.00;99.90;;;;;;1863326;77;21559;-77
2021/07/13 05:36:54;;;;;;;1.47;0.78;;;20.10;99.90;;;;;;1863091;77;21132;-76
2021/07/13 05:39:20;;;;;;;1.67;0.90;;;20.20;99.90;;;;;;1863206;77;21521;-78
2021/07/13 05:41:46;;;;;;;1.00;0.80;;;20.20;99.90;;;;;;1863018;76;21651;-75
2021/07/13 05:44:12;;;;;;;0.65;0.57;;;20.10;99.90;;;;;;1862946;76;21563;-76
2021/07/13 05:46:39;;;;;;;3.70;0.90;;;20.20;99.90;;;;;;1862959;77;21081;-75
2021/07/13 05:49:05;;;;;;;1.20;0.80;;;20.30;99.90;;;;;;1863267;77;21097;-77
2021/07/13 05:51:31;;;;;;;0.75;0.72;;;20.30;99.90;;;;;;1863315;76;21089;-77
2021/07/13 05:53:58;;;;;;;0.60;0.60;;;20.30;99.90;;;;;;1863376;77;21106;-77
2021/07/13 05:56:24;;;;;;;0.88;0.57;;;20.20;99.90;;;;;;1863342;77;21101;-77
2021/07/13 05:58:50;;;;;;;1.27;0.62;;;20.20;99.90;;;;;;1862898;76;21513;-77
2021/07/13 06:01:16;;;;;;;1.65;0.70;;;20.20;99.90;;;;;;1863078;77;21055;-76
2021/07/13 06:03:42;;;;;;;1.87;0.85;;;20.10;99.90;;;;;;1862979;77;21209;-77
2021/07/13 06:06:08;;;;;;;2.20;0.75;;;20.10;99.90;;;;;;1863041;77;21090;-76
2021/07/13 06:08:35;;;;;;;3.02;0.70;;;20.00;99.90;;;;;;1863089;76;21128;-77
2021/07/13 06:11:01;;;;;;;1.90;1.10;;;19.80;99.90;;;;;;1863615;76;21054;-78
2021/07/13 06:13:27;;;;;;;2.27;0.70;;;19.50;99.90;;;;;;1864729;76;21207;-77
2021/07/13 06:15:53;;;;;;;1.77;0.88;;;19.40;99.90;;;;;;1866616;75;21082;-76
2021/07/13 06:18:19;;;;;;;1.50;0.82;;;19.50;99.90;;;;;;1865591;76;21078;-76
2021/07/13 06:20:45;;;;;;;1.80;0.68;;;19.50;99.90;;;;;;1863519;76;21027;-77
2021/07/13 06:23:11;;;;;;;2.05;0.90;;;19.40;99.90;;;;;;1863716;77;21155;-77
2021/07/13 06:25:37;;;;;;;0.88;0.88;;;19.40;99.90;;;;;;1863639;77;21241;-77
2021/07/13 06:28:04;;;;;;;5.28;1.60;;;19.40;99.90;;;;;;1863457;77;21088;-76
2021/07/13 06:30:30;;;;;;;2.85;1.30;;;19.40;99.90;;;;;;1863157;77;21058;-77
2021/07/13 06:32:56;;;;;;;1.37;1.20;;;19.40;99.90;;;;;;1863230;76;21089;-77
2021/07/13 06:35:22;;;;;;;4.05;1.65;;;19.50;99.90;;;;;;1863234;76;21180;-77
2021/07/13 06:37:48;;;;;;;3.37;1.42;;;19.40;99.90;;;;;;1863182;77;21089;-77
2021/07/13 06:40:16;;;;;;;8.45;1.50;;;19.40;99.90;;;;;;1863091;77;21050;-77
2021/07/13 06:42:42;;;;;;;3.67;1.22;;;19.50;99.90;;;;;;1863054;77;21105;-77
2021/07/13 06:45:08;;;;;;;6.42;1.42;;;19.50;99.90;;;;;;1863015;76;21085;-77
2021/07/13 06:47:34;;;;;;;3.20;1.65;;;19.60;99.90;;;;;;1863075;77;21274;-77
2021/07/13 06:50:00;;;;;;;1.60;1.22;;;19.70;99.90;;;;;;1862977;77;21046;-78
2021/07/13 06:52:27;;;;;;;1.25;0.90;;;19.60;99.90;;;;;;1863208;77;21209;-77
2021/07/13 06:54:53;;;;;;;4.40;1.42;;;19.60;99.90;;;;;;1863133;76;21152;-75
2021/07/13 06:57:21;;;;;;;1.62;1.50;;;19.50;99.90;;;;;;1862680;76;21101;-77
2021/07/13 06:59:47;;;;;;;3.77;1.95;;;19.50;99.90;;;;;;1855541;76;21081;-76
2021/07/13 07:02:13;;;;;;;2.58;1.80;;;19.40;99.90;;;;;;1863168;77;21050;-75
2021/07/13 07:04:40;;;;;;;3.77;2.00;;;19.30;99.90;;;;;;1863443;76;21085;-76
2021/07/13 07:07:06;;;;;;;6.35;2.12;;;19.30;99.90;;;;;;1863379;76;21525;-74
2021/07/13 07:09:32;;;;;;;4.55;1.67;;;19.40;99.90;;;;;;1863278;77;21579;-76
2021/07/13 07:11:58;;;;;;;3.67;1.22;;;19.40;99.90;;;;;;1863579;77;21051;-75
2021/07/13 07:14:24;;;;;;;3.45;1.60;;;19.40;99.90;;;;;;1863305;76;21082;-76
2021/07/13 07:16:50;;;;;;;2.25;1.30;;;19.40;99.90;;;;;;1863180;77;21115;-75
2021/07/13 07:19:16;;;;;;;8.40;2.33;;;19.50;99.90;;;;;;1863413;77;21171;-76
2021/07/13 07:21:43;;;;;;;2.67;1.37;;;19.50;99.90;;;;;;1863361;77;21148;-75
2021/07/13 07:24:09;;;;;;;2.27;1.40;;;19.50;99.90;;;;;;1863482;77;21050;-76
2021/07/13 07:26:35;;;;;;;1.50;1.40;;;19.40;99.90;;;;;;1863392;77;21129;-74
2021/07/13 07:29:01;;;;;;;4.85;1.60;;;19.30;99.90;;;;;;1860828;76;21175;-74
2021/07/13 07:31:27;;;;;;;3.62;1.70;;;19.30;99.90;;;;;;1860081;77;21089;-75
2021/07/13 07:33:53;;;;;;;2.10;1.62;;;19.20;99.90;;;;;;1858159;76;21058;-75
2021/07/13 07:36:20;;;;;;;2.45;1.85;;;19.20;99.90;;;;;;1861736;77;21163;-75
2021/07/13 07:38:46;;;;;;;3.77;1.70;;;19.30;99.90;;;;;;1859492;76;21273;-75
2021/07/13 07:41:12;;;;;;;2.67;1.87;;;19.40;99.90;;;;;;1863454;77;21101;-75
2021/07/13 07:43:38;;;;;;;5.47;2.08;;;19.50;99.90;;;;;;1863502;77;21062;-76
2021/07/13 07:46:04;;;;;;;6.33;2.02;;;19.40;99.90;;;;;;1863488;77;21391;-76
2021/07/13 07:48:31;;;;;;;3.08;2.00;;;19.30;99.90;;;;;;1863435;76;21237;-76
2021/07/13 07:50:57;;;;;;;2.12;1.92;;;19.30;99.90;;;;;;1863434;77;21159;-76
2021/07/13 07:53:23;;;;;;;3.27;2.20;;;19.30;99.90;;;;;;1863706;77;21093;-75
2021/07/13 07:55:49;;;;;;;2.25;2.05;;;19.30;99.90;;;;;;1863472;77;21200;-75
2021/07/13 07:58:15;;;;;;;3.42;2.20;;;19.30;99.90;;;;;;1863659;77;21214;-75
2021/07/13 08:00:41;;;;;;;2.47;2.20;;;19.30;99.90;;;;;;1863432;76;21129;-74
2021/07/13 08:03:07;;;;;;;4.10;2.50;;;19.50;99.90;;;;;;1863383;76;21208;-74
2021/07/13 08:05:37;;;;;;;6.62;2.80;;;19.50;99.90;;;;;;1863434;77;21062;-74
2021/07/13 08:08:01;;;;;;;3.42;2.40;;;19.50;99.90;;;;;;1863567;76;21130;-74
2021/07/13 08:10:29;;;;;;;4.58;2.40;;;19.60;99.90;;;;;;1879662;76;21077;-75
2021/07/13 08:12:55;;;;;;;2.95;2.10;;;19.70;99.90;;;;;;1863675;77;21211;-76
2021/07/13 08:15:21;;;;;;;4.22;2.37;;;20.00;99.90;;;;;;1863650;77;21155;-76
2021/07/13 08:17:47;;;;;;;4.03;2.45;;;20.20;99.90;;;;;;1863551;77;21097;-76
2021/07/13 08:20:13;;;;;;;4.72;2.50;;;20.30;99.90;;;;;;1863602;77;21093;-76
2021/07/13 08:22:39;;;;;;;4.05;2.52;;;20.20;99.90;;;;;;1863481;76;21105;-76
2021/07/13 08:25:05;;;;;;;4.67;2.52;;;20.20;99.90;;;;;;1863483;77;21109;-76
2021/07/13 08:27:31;;;;;;;9.95;3.47;;;19.90;99.90;;;;;;1863453;76;21155;-75
2021/07/13 08:29:57;;;;;;;3.02;2.62;;;20.00;99.90;;;;;;1863547;77;21113;-76
2021/07/13 08:32:24;;;;;;;5.65;2.80;;;20.10;99.90;;;;;;1863349;77;21134;-76
2021/07/13 08:34:50;;;;;;;3.75;2.22;;;19.90;99.90;;;;;;1863613;76;21105;-76
2021/07/13 08:37:19;;;;;;;6.90;2.35;;;20.00;99.90;;;;;;1863382;77;21595;-76
2021/07/13 08:39:44;;;;;;;3.90;2.15;;;19.90;99.90;;;;;;1863572;76;21199;-76
2021/07/13 08:42:10;;;;;;;3.45;2.12;;;20.00;99.90;;;;;;1863473;77;21089;-76
2021/07/13 08:44:36;;;;;;;3.47;1.80;;;19.90;99.90;;;;;;1863406;77;21101;-76
2021/07/13 08:47:02;;;;;;;6.95;1.70;;;20.00;99.90;;;;;;1863258;76;21122;-76
2021/07/13 08:49:28;;;;;;;8.08;5.25;;;20.00;99.90;;;;;;1863385;76;21093;-76
2021/07/13 08:51:54;;;;;;;4.75;2.75;;;20.00;99.90;;;;;;1863210;77;21105;-77
2021/07/13 08:54:20;;;;;;;2.25;1.67;;;19.90;99.90;;;;;;1863436;77;21112;-76
2021/07/13 08:56:46;;;;;;;2.95;1.60;;;19.70;99.90;;;;;;1863144;77;21101;-77
2021/07/13 08:59:13;;;;;;;3.65;2.20;;;19.70;99.90;;;;;;1889179;76;21151;-76
2021/07/13 09:01:39;;;;;;;1.67;1.47;;;19.70;99.90;;;;;;1895511;76;21148;-76
2021/07/13 09:04:05;;;;;;;6.72;1.77;;;19.70;99.90;;;;;;1895539;76;21175;-76
2021/07/13 09:06:31;;;;;;;1.95;1.30;;;19.70;99.90;;;;;;1895473;76;21450;-76
2021/07/13 09:08:57;;;;;;;2.22;1.60;;;19.70;99.90;;;;;;1895600;74;21493;-77
2021/07/13 09:11:23;;;;;;;2.35;1.42;;;19.70;99.90;;;;;;1895468;76;21470;-77
2021/07/13 09:13:49;;;;;;;5.03;1.80;;;19.70;99.90;;;;;;1895588;76;21471;-77
2021/07/13 09:16:16;;;;;;;3.98;1.47;;;19.80;99.90;;;;;;1895439;76;21533;-78
2021/07/13 09:18:42;;;;;;;4.90;2.22;;;19.90;99.90;;;;;;1895477;76;21588;-77
2021/07/13 09:21:08;;;;;;;3.35;1.37;;;19.80;99.90;;;;;;1895462;76;21477;-77
2021/07/13 09:23:34;;;;;;;2.55;1.50;;;19.90;99.90;;;;;;1895503;75;21047;-77
2021/07/13 09:26:00;;;;;;;2.12;1.55;;;19.90;99.90;;;;;;1895548;76;21221;-77
2021/07/13 09:28:26;;;;;;;4.00;1.82;;;19.80;99.90;;;;;;1895423;76;21124;-77
2021/07/13 09:30:52;;;;;;;2.20;1.70;;;19.70;99.90;;;;;;1895480;76;21074;-77
2021/07/13 09:33:18;;;;;;;5.70;2.15;;;19.60;99.90;;;;;;1895399;76;21043;-77
2021/07/13 09:35:48;;;;;;;5.78;2.47;;;19.60;99.90;;;;;;1895523;76;21095;-77
2021/07/13 09:38:12;;;;;;;5.12;2.17;;;19.50;99.90;;;;;;1894912;76;21155;-77
2021/07/13 09:40:38;;;;;;;7.42;1.50;;;19.30;99.90;;;;;;1895545;76;21205;-77
2021/07/13 09:43:05;;;;;;;1.75;0.93;;;19.10;99.90;;;;;;1895450;76;21104;-74
2021/07/13 09:45:32;;;;;;;1.65;0.60;;;18.70;99.90;;;;;;1895434;76;21128;-74
2021/07/13 09:47:59;;;;;;;0.70;0.47;;;18.20;99.90;;;;;;1895358;76;21055;-74
2021/07/13 09:50:25;;;;;;;1.37;0.60;;;17.80;99.90;;;;;;1895446;74;21083;-74
2021/07/13 09:52:51;;;;;;;1.17;0.45;;;17.60;99.90;;;;;;1895545;75;21168;-74
2021/07/13 09:55:17;;;;;;;0.82;0.60;;;17.50;99.90;;;;;;1895588;76;21069;-74
2021/07/13 09:57:43;;;;;;;1.05;0.55;;;17.40;99.90;;;;;;1895640;75;21063;-72
2021/07/13 10:00:09;;;;;;;1.45;0.62;;;17.40;99.90;;;;;;1895613;76;21065;-73
2021/07/13 10:02:36;;;;;;;0.55;0.47;;;17.40;99.90;;;;;;1887594;76;21630;-73
2021/07/13 10:05:03;;;;;;;0.47;0.40;;;17.40;99.90;;;;;;1886200;76;21596;-74
2021/07/13 10:07:30;;;;;;;0.50;0.50;;;17.30;99.90;;;;;;1886307;76;21089;-74
2021/07/13 10:09:56;;;;;;;0.30;0.30;;;17.40;99.90;;;;;;1887488;76;21559;-74
2021/07/13 10:12:23;;;;;;;0.30;0.30;;;17.50;99.90;;;;;;1887304;75;21558;-74
2021/07/13 10:14:53;;;;;;;1.07;0.90;;;17.60;99.90;;;;;;1885785;75;21115;-74
2021/07/13 10:17:18;;;;;;;0.45;0.40;;;17.80;99.90;;;;;;1892704;76;21148;-74
2021/07/13 10:19:44;;;;;;;0.68;0.50;;;17.90;99.90;;;;;;1893758;75;21155;-75
2021/07/13 10:22:10;;;;;;;0.50;0.45;;;18.10;99.90;;;;;;1895663;75;21062;-77
2021/07/13 10:24:36;;;;;;;0.30;0.30;;;18.00;99.90;;;;;;1895507;76;21085;-76
2021/07/13 10:27:03;;;;;;;7.22;0.55;;;18.00;99.90;;;;;;1895503;74;21105;-77
2021/07/13 10:29:29;;;;;;;1.35;0.25;;;18.00;99.90;;;;;;1895530;76;21086;-76
2021/07/13 10:31:55;;;;;;;0.60;0.50;;;17.80;99.90;;;;;;1895597;76;21122;-77
2021/07/13 10:34:21;;;;;;;0.42;0.30;;;17.60;99.90;;;;;;1895597;76;21073;-77
2021/07/13 10:36:47;;;;;;;1.37;0.35;;;17.60;99.90;;;;;;1895566;76;21082;-75
2021/07/13 10:39:13;;;;;;;1.20;0.33;;;17.50;99.90;;;;;;1895638;76;21078;-75
2021/07/13 10:41:40;;;;;;;0.35;0.20;;;17.30;99.90;;;;;;1897805;76;21058;-75
2021/07/13 10:44:06;;;;;;;0.98;0.35;;;17.20;99.90;;;;;;1899617;74;21110;-75
2021/07/13 10:46:32;;;;;;;0.25;0.20;;;17.10;99.90;;;;;;1897228;74;21057;-76
2021/07/13 10:48:58;;;;;;;0.20;0.10;;;17.10;99.90;;;;;;1895654;76;21116;-75
2021/07/13 10:51:24;;;;;;;0.60;0.10;;;16.90;99.90;;;;;;1895641;76;21046;-75
2021/07/13 10:53:50;;;;;;;0.25;0.17;;;16.80;99.90;;;;;;1895638;76;21081;-75
2021/07/13 10:56:21;;;;;;;0.10;0.10;;;16.80;99.90;;;;;;1895698;74;21074;-75
2021/07/13 10:58:47;;;;;;;0.88;0.42;;;16.90;99.90;;;;;;1894279;76;21203;-74
2021/07/13 11:01:18;;;;;;;1.55;0.40;;;17.00;99.90;;;;;;1895511;76;21140;-73
2021/07/13 11:03:41;;;;;;;0.20;0.20;;;17.10;99.90;;;;;;1894372;76;21099;-73
2021/07/13 11:06:07;;;;;;;0.15;0.15;;;17.10;99.90;;;;;;1895815;76;21047;-74
2021/07/13 11:08:33;;;;;;;0.45;0.23;;;17.50;99.90;;;;;;1895677;74;21479;-74
2021/07/13 11:11:00;;;;;;;0.13;0.10;;;18.10;99.90;;;;;;1895679;76;21529;-74
2021/07/13 11:13:26;;;;;;;0.37;0.20;;;18.50;99.90;;;;;;1895497;76;21537;-75
2021/07/13 11:15:52;;;;;;;0.55;0.30;;;18.60;99.90;;;;;;1895624;76;21077;-75
2021/07/13 11:18:18;;;;;;;0.68;0.57;;;18.60;99.90;;;;;;1895486;74;21169;-75
2021/07/13 11:20:44;;;;;;;0.33;0.17;;;18.50;99.90;;;;;;1895684;76;21144;-76
2021/07/13 11:23:10;;;;;;;0.80;0.40;;;18.70;99.90;;;;;;1895734;75;21147;-77
2021/07/13 11:25:36;;;;;;;1.17;0.40;;;18.50;99.90;;;;;;1895783;76;21051;-74
2021/07/13 11:28:02;;;;;;;0.70;0.25;;;18.60;99.90;;;;;;1895528;76;21155;-75
2021/07/13 11:30:29;;;;;;;3.30;0.17;;;18.40;99.90;;;;;;1895722;76;21078;-75
2021/07/13 11:32:55;;;;;;;0.40;0.30;;;18.00;99.90;;;;;;1895538;76;21077;-74
2021/07/13 11:35:21;;;;;;;3.62;0.47;;;17.90;99.90;;;;;;1895486;74;21018;-75
2021/07/13 11:37:47;;;;;;;0.25;0.20;;;17.80;99.90;;;;;;1895689;76;21245;-75
2021/07/13 11:40:13;;;;;;;0.20;0.20;;;17.70;99.90;;;;;;1895760;76;21085;-75
2021/07/13 11:42:39;;;;;;;2.27;0.45;;;17.70;99.90;;;;;;1895837;76;21238;-73
2021/07/13 11:45:05;;;;;;;0.40;0.20;;;17.80;99.90;;;;;;1895720;75;21090;-75
2021/07/13 11:47:31;;;;;;;1.55;0.30;;;17.80;99.90;;;;;;1895748;76;21143;-74
2021/07/13 11:49:58;;;;;;;0.65;0.30;;;17.90;99.90;;;;;;1895691;76;21136;-74
2021/07/13 11:52:24;;;;;;;0.20;0.20;;;17.80;99.90;;;;;;1895674;76;21560;-74
2021/07/13 11:54:56;;;;;;;2.75;0.40;;;17.90;99.90;;;;;;1895599;76;21486;-74
2021/07/13 11:57:18;;;;;;;0.40;0.40;;;18.00;99.90;;;;;;1894292;76;21051;-74
2021/07/13 11:59:45;;;;;;;0.85;0.23;;;18.00;99.90;;;;;;1895614;76;21135;-74
2021/07/13 12:02:11;;;;;;;0.93;0.30;;;18.10;99.90;;;;;;1895510;76;21086;-74
2021/07/13 12:04:37;;;;;;;0.42;0.42;;;18.20;99.90;;;;;;1895678;76;21140;-74
2021/07/13 12:07:03;;;;;;;0.33;0.20;;;18.50;99.90;;;;;;1895441;76;21058;-76
2021/07/13 12:09:29;;;;;;;0.60;0.30;;;18.50;99.90;;;;;;1895574;76;21078;-75
2021/07/13 12:11:55;;;;;;;1.45;0.28;;;18.50;99.90;;;;;;1895640;76;21125;-75
2021/07/13 12:14:21;;;;;;;0.10;0.10;;;18.50;99.90;;;;;;1895568;76;21078;-75
2021/07/13 12:16:48;;;;;;;0.90;0.40;;;18.30;99.90;;;;;;1895715;74;21051;-74
2021/07/13 12:19:14;;;;;;;0.10;0.10;;;18.50;99.90;;;;;;1895718;76;21057;-74
2021/07/13 12:21:40;;;;;;;0.40;0.30;;;18.60;99.90;;;;;;1895602;76;21139;-74
2021/07/13 12:24:06;;;;;;;0.47;0.20;;;18.50;99.90;;;;;;1895815;76;21214;-75
2021/07/13 12:26:32;;;;;;;0.47;0.30;;;18.50;99.90;;;;;;1895485;74;21256;-76
2021/07/13 12:28:58;;;;;;;0.72;0.30;;;18.70;99.90;;;;;;1895756;76;21443;-78
2021/07/13 12:31:24;;;;;;;0.20;0.20;;;18.70;99.90;;;;;;1895596;76;21148;-78
2021/07/13 12:33:51;;;;;;;0.57;0.50;;;18.70;99.90;;;;;;1889200;74;21152;-83
2021/07/13 12:36:17;;;;;;;0.60;0.37;;;18.90;99.90;;;;;;1895482;76;21081;-79
2021/07/13 12:38:43;;;;;;;5.87;0.40;;;18.90;99.90;;;;;;1895798;74;21062;-81
2021/07/13 12:41:09;;;;;;;0.10;0.10;;;18.90;99.90;;;;;;1895674;74;21077;-78